Time;durP1;ratioP1;P1;durP2;ratioP2;P2;SDS_P1;SDS_P2;PMS_P1;PMS_P2;Temp;Humidity;BMP_temperature;BMP_pressure;BME280_temperature;BME280_humidity;BME280_pressure;Samples;Min_cycle;Max_cycle;Signal;HPM_P1;HPM_P2
2023/04/21 00:02:02;;;;;;;;;;;;;;;;;;5005719;28;19924;-80
2023/04/21 00:04:27;;;;;;;;;;;;;;;;;;4999103;28;19992;-80
2023/04/21 00:06:53;;;;;;;;;;;;;;;;;;5004387;28;20411;-81
2023/04/21 00:09:18;;;;;;;;;;;;;;;;;;5005641;28;19921;-80
2023/04/21 00:11:44;;;;;;;;;;;;;;;;;;5005507;28;19925;-80
2023/04/21 00:14:09;;;;;;;;;;;;;;;;;;5007023;28;19937;-80
2023/04/21 00:16:34;;;;;;;;;;;;;;;;;;5004856;28;19921;-80
2023/04/21 00:19:01;;;;;;;;;;;;;;;;;;5006891;28;19910;-80
2023/04/21 00:21:26;;;;;;;;;;;;;;;;;;5010999;28;19921;-80
2023/04/21 00:23:51;;;;;;;;;;;;;;;;;;5005404;28;19917;-80
2023/04/21 00:26:17;;;;;;;;;;;;;;;;;;5004409;28;20009;-81
2023/04/21 00:28:43;;;;;;;;;;;;;;;;;;5038063;28;19913;-80
2023/04/21 00:31:09;;;;;;;;;;;;;;;;;;5003477;28;19972;-80
2023/04/21 00:33:34;;;;;;;;;;;;;;;;;;5005589;28;19909;-81
2023/04/21 00:35:59;;;;;;;;;;;;;;;;;;5003526;28;19928;-80
2023/04/21 00:38:26;;;;;;;;;;;;;;;;;;5005153;28;19928;-80
2023/04/21 00:40:51;;;;;;;;;;;;;;;;;;5015696;28;20015;-80
2023/04/21 00:43:16;;;;;;;;;;;;;;;;;;5039611;28;19918;-80
2023/04/21 00:45:42;;;;;;;;;;;;;;;;;;5045057;28;19941;-81
2023/04/21 00:48:07;;;;;;;;;;;;;;;;;;5038987;28;19968;-80
2023/04/21 00:50:32;;;;;;;;;;;;;;;;;;5022055;28;20007;-80
2023/04/21 00:52:57;;;;;;;;;;;;;;;;;;5019046;28;19910;-80
2023/04/21 00:55:23;;;;;;;;;;;;;;;;;;5052218;28;20019;-80
2023/04/21 00:57:48;;;;;;;;;;;;;;;;;;5038708;28;19914;-80
2023/04/21 01:00:13;;;;;;;;;;;;;;;;;;5037088;28;19914;-81
2023/04/21 01:02:39;;;;;;;;;;;;;;;;;;5001452;28;19913;-80
2023/04/21 01:05:06;;;;;;;;;;;;;;;;;;5005338;28;19914;-80
2023/04/21 01:07:31;;;;;;;;;;;;;;;;;;5008648;28;19914;-80
2023/04/21 01:09:56;;;;;;;;;;;;;;;;;;5007113;28;20408;-80
2023/04/21 01:12:22;;;;;;;;;;;;;;;;;;5004096;28;19984;-80
2023/04/21 01:14:47;;;;;;;;;;;;;;;;;;5011324;28;19928;-80
2023/04/21 01:17:12;;;;;;;;;;;;;;;;;;5040118;28;19932;-80
2023/04/21 01:19:38;;;;;;;;;;;;;;;;;;5007082;28;19921;-80
2023/04/21 01:22:05;;;;;;;;;;;;;;;;;;5038214;28;19916;-80
2023/04/21 01:24:30;;;;;;;;;;;;;;;;;;5003071;28;20502;-80
2023/04/21 01:26:56;;;;;;;;;;;;;;;;;;5037805;28;19909;-80
2023/04/21 01:29:22;;;;;;;;;;;;;;;;;;5006597;28;19913;-80
2023/04/21 01:31:47;;;;;;;;;;;;;;;;;;5012172;28;19909;-80
2023/04/21 01:34:12;;;;;;;;;;;;;;;;;;5024244;28;19919;-80
2023/04/21 01:36:38;;;;;;;;;;;;;;;;;;5024084;28;19927;-80
2023/04/21 01:39:03;;;;;;;;;;;;;;;;;;5020733;28;19897;-80
2023/04/21 01:41:28;;;;;;;;;;;;;;;;;;5011663;28;19917;-80
2023/04/21 01:43:54;;;;;;;;;;;;;;;;;;5023448;28;19913;-80
2023/04/21 01:46:19;;;;;;;;;;;;;;;;;;5025984;28;19923;-80
2023/04/21 01:48:45;;;;;;;;;;;;;;;;;;5012033;28;19925;-79
2023/04/21 01:51:10;;;;;;;;;;;;;;;;;;5006718;28;20394;-79
2023/04/21 01:53:36;;;;;;;;;;;;;;;;;;5007473;28;19914;-79
2023/04/21 01:56:01;;;;;;;;;;;;;;;;;;5007752;28;19910;-80
2023/04/21 01:58:29;;;;;;;;;;;;;;;;;;5007370;28;20000;-79
2023/04/21 02:00:55;;;;;;;;;;;;;;;;;;5006488;28;20365;-79
2023/04/21 02:03:20;;;;;;;;;;;;;;;;;;5007696;28;19928;-80
2023/04/21 02:05:45;;;;;;;;;;;;;;;;;;4991146;28;19910;-80
2023/04/21 02:08:11;;;;;;;;;;;;;;;;;;5004845;28;19917;-80
2023/04/21 02:10:38;;;;;;;;;;;;;;;;;;5006764;28;19910;-80
2023/04/21 02:13:03;;;;;;;;;;;;;;;;;;5005034;28;19914;-80
2023/04/21 02:15:28;;;;;;;;;;;;;;;;;;4990846;28;19914;-80
2023/04/21 02:17:54;;;;;;;;;;;;;;;;;;5003308;28;20443;-80
2023/04/21 02:20:19;;;;;;;;;;;;;;;;;;5003610;28;19914;-80
2023/04/21 02:22:45;;;;;;;;;;;;;;;;;;5007374;28;19914;-80
2023/04/21 02:25:10;;;;;;;;;;;;;;;;;;5008055;28;19941;-80
2023/04/21 02:27:37;;;;;;;;;;;;;;;;;;5007414;28;19918;-80
2023/04/21 02:30:02;;;;;;;;;;;;;;;;;;5035223;28;19917;-80
2023/04/21 02:32:28;;;;;;;;;;;;;;;;;;5019386;28;19920;-80
2023/04/21 02:34:53;;;;;;;;;;;;;;;;;;5007007;28;19924;-79
2023/04/21 02:37:19;;;;;;;;;;;;;;;;;;5006489;28;19922;-79
2023/04/21 02:39:44;;;;;;;;;;;;;;;;;;4989982;28;19917;-80
2023/04/21 02:42:10;;;;;;;;;;;;;;;;;;5006134;28;20012;-80
2023/04/21 02:44:35;;;;;;;;;;;;;;;;;;5007273;28;19977;-80
2023/04/21 02:47:00;;;;;;;;;;;;;;;;;;5007631;28;19913;-80
2023/04/21 02:49:26;;;;;;;;;;;;;;;;;;5007447;28;19909;-80
2023/04/21 02:51:51;;;;;;;;;;;;;;;;;;5003425;28;19914;-80
2023/04/21 02:54:16;;;;;;;;;;;;;;;;;;5004836;28;19991;-80
2023/04/21 02:56:42;;;;;;;;;;;;;;;;;;5002377;28;19968;-80
2023/04/21 02:59:07;;;;;;;;;;;;;;;;;;4994147;28;19909;-80
2023/04/21 03:01:32;;;;;;;;;;;;;;;;;;5008906;28;19964;-80
2023/04/21 03:03:59;;;;;;;;;;;;;;;;;;5004081;28;19914;-80
2023/04/21 03:06:25;;;;;;;;;;;;;;;;;;5004971;28;19914;-80
2023/04/21 03:08:51;;;;;;;;;;;;;;;;;;5002265;28;19913;-81
2023/04/21 03:11:16;;;;;;;;;;;;;;;;;;5007139;28;19920;-81
2023/04/21 03:13:41;;;;;;;;;;;;;;;;;;5008185;28;19969;-81
2023/04/21 03:16:06;;;;;;;;;;;;;;;;;;5008681;28;19913;-81
2023/04/21 03:18:32;;;;;;;;;;;;;;;;;;5011713;28;19909;-81
2023/04/21 03:20:57;;;;;;;;;;;;;;;;;;5002899;28;20004;-80
2023/04/21 03:23:22;;;;;;;;;;;;;;;;;;5007080;28;20373;-80
2023/04/21 03:25:48;;;;;;;;;;;;;;;;;;5007717;28;19914;-80
2023/04/21 03:28:14;;;;;;;;;;;;;;;;;;5002202;28;20388;-81
2023/04/21 03:30:40;;;;;;;;;;;;;;;;;;5031961;28;19996;-80
2023/04/21 03:33:05;;;;;;;;;;;;;;;;;;5032253;28;20411;-80
2023/04/21 03:35:33;;;;;;;;;;;;;;;;;;4999154;28;19972;-80
2023/04/21 03:37:58;;;;;;;;;;;;;;;;;;5000951;28;19916;-80
2023/04/21 03:40:24;;;;;;;;;;;;;;;;;;4990675;28;19914;-80
2023/04/21 03:42:50;;;;;;;;;;;;;;;;;;4997495;28;19909;-80
2023/04/21 03:45:18;;;;;;;;;;;;;;;;;;5000594;28;19921;-80
2023/04/21 03:47:43;;;;;;;;;;;;;;;;;;4998561;28;20321;-80
2023/04/21 03:50:09;;;;;;;;;;;;;;;;;;4996151;28;19944;-80
2023/04/21 03:52:34;;;;;;;;;;;;;;;;;;4995263;28;19925;-80
2023/04/21 03:54:59;;;;;;;;;;;;;;;;;;5002297;28;19984;-80
2023/04/21 03:57:25;;;;;;;;;;;;;;;;;;5002790;28;19932;-81
2023/04/21 03:59:50;;;;;;;;;;;;;;;;;;5002433;28;20377;-80
2023/04/21 04:02:15;;;;;;;;;;;;;;;;;;5006417;28;19914;-80
2023/04/21 04:04:41;;;;;;;;;;;;;;;;;;5012171;28;19929;-80
2023/04/21 04:07:07;;;;;;;;;;;;;;;;;;5001979;28;19909;-80
2023/04/21 04:09:33;;;;;;;;;;;;;;;;;;4999563;28;19919;-80
2023/04/21 04:11:58;;;;;;;;;;;;;;;;;;5013185;28;19967;-81
2023/04/21 04:14:23;;;;;;;;;;;;;;;;;;5016225;28;19913;-80
2023/04/21 04:16:49;;;;;;;;;;;;;;;;;;5040533;28;20343;-81
2023/04/21 04:19:15;;;;;;;;;;;;;;;;;;5016332;28;19921;-81
2023/04/21 04:21:40;;;;;;;;;;;;;;;;;;5018145;28;19940;-80
2023/04/21 04:24:07;;;;;;;;;;;;;;;;;;5001210;28;19913;-80
2023/04/21 04:26:32;;;;;;;;;;;;;;;;;;4993606;28;19916;-81
2023/04/21 04:28:59;;;;;;;;;;;;;;;;;;4995387;28;19918;-81
2023/04/21 04:31:24;;;;;;;;;;;;;;;;;;4998516;28;19916;-80
2023/04/21 04:33:50;;;;;;;;;;;;;;;;;;4997973;28;20304;-81
2023/04/21 04:36:15;;;;;;;;;;;;;;;;;;4996262;28;19932;-81
2023/04/21 04:38:40;;;;;;;;;;;;;;;;;;4998334;28;19914;-81
2023/04/21 04:41:07;;;;;;;;;;;;;;;;;;4997246;28;20016;-81
2023/04/21 04:43:35;;;;;;;;;;;;;;;;;;4990726;28;19913;-81
2023/04/21 04:46:00;;;;;;;;;;;;;;;;;;4997639;28;19945;-80
2023/04/21 04:48:26;;;;;;;;;;;;;;;;;;5000211;28;19968;-80
2023/04/21 04:50:51;;;;;;;;;;;;;;;;;;4995779;28;20403;-82
2023/04/21 04:53:16;;;;;;;;;;;;;;;;;;5018850;28;19914;-81
2023/04/21 04:55:42;;;;;;;;;;;;;;;;;;4991607;28;19933;-81
2023/04/21 04:58:07;;;;;;;;;;;;;;;;;;5004117;28;19936;-82
2023/04/21 05:00:32;;;;;;;;;;;;;;;;;;5034655;28;19910;-82
2023/04/21 05:02:58;;;;;;;;;;;;;;;;;;5013277;28;19940;-81
2023/04/21 05:05:23;;;;;;;;;;;;;;;;;;4998476;28;19909;-81
2023/04/21 05:07:49;;;;;;;;;;;;;;;;;;4997212;28;20590;-79
2023/04/21 05:10:14;;;;;;;;;;;;;;;;;;5027317;28;19921;-79
2023/04/21 05:12:39;;;;;;;;;;;;;;;;;;5013424;28;19913;-80
2023/04/21 05:15:05;;;;;;;;;;;;;;;;;;5031993;28;20398;-80
2023/04/21 05:17:31;;;;;;;;;;;;;;;;;;4998791;28;19914;-81
2023/04/21 05:19:56;;;;;;;;;;;;;;;;;;4993330;28;19960;-81
2023/04/21 05:22:21;;;;;;;;;;;;;;;;;;4993737;28;20361;-81
2023/04/21 05:24:47;;;;;;;;;;;;;;;;;;4990447;28;20463;-78
2023/04/21 05:27:12;;;;;;;;;;;;;;;;;;4991905;28;19920;-80
2023/04/21 05:29:37;;;;;;;;;;;;;;;;;;4990932;28;19909;-81
2023/04/21 05:32:04;;;;;;;;;;;;;;;;;;4993786;28;19960;-79
2023/04/21 05:34:29;;;;;;;;;;;;;;;;;;4992750;28;20476;-79
2023/04/21 05:36:55;;;;;;;;;;;;;;;;;;4991738;28;19933;-78
2023/04/21 05:39:20;;;;;;;;;;;;;;;;;;4992152;28;19914;-79
2023/04/21 05:41:45;;;;;;;;;;;;;;;;;;4996907;28;19964;-78
2023/04/21 05:44:10;;;;;;;;;;;;;;;;;;4998491;28;19951;-80
2023/04/21 05:46:36;;;;;;;;;;;;;;;;;;5000028;28;19913;-81
2023/04/21 05:49:01;;;;;;;;;;;;;;;;;;4998190;28;20399;-79
2023/04/21 05:51:27;;;;;;;;;;;;;;;;;;4988316;28;19941;-80
2023/04/21 05:53:52;;;;;;;;;;;;;;;;;;5001060;28;19915;-79
2023/04/21 05:56:17;;;;;;;;;;;;;;;;;;4998192;28;19914;-79
2023/04/21 05:58:42;;;;;;;;;;;;;;;;;;5000481;28;19913;-79
2023/04/21 06:01:08;;;;;;;;;;;;;;;;;;4998763;28;19914;-80
2023/04/21 06:03:33;;;;;;;;;;;;;;;;;;5000213;28;19925;-80
2023/04/21 06:05:59;;;;;;;;;;;;;;;;;;4998566;28;19949;-80
2023/04/21 06:08:24;;;;;;;;;;;;;;;;;;4999875;28;19917;-79
2023/04/21 06:10:49;;;;;;;;;;;;;;;;;;4998441;28;20009;-80
2023/04/21 06:13:15;;;;;;;;;;;;;;;;;;4998745;28;19967;-80
2023/04/21 06:15:40;;;;;;;;;;;;;;;;;;5002310;28;19913;-80
2023/04/21 06:18:05;;;;;;;;;;;;;;;;;;4999889;28;19914;-79
2023/04/21 06:20:31;;;;;;;;;;;;;;;;;;4994417;28;19936;-81
2023/04/21 06:22:56;;;;;;;;;;;;;;;;;;4994078;28;19914;-79
2023/04/21 06:25:21;;;;;;;;;;;;;;;;;;4994138;28;19960;-79
2023/04/21 06:27:46;;;;;;;;;;;;;;;;;;4992826;28;19943;-79
2023/04/21 06:30:12;;;;;;;;;;;;;;;;;;5024617;28;19921;-79
2023/04/21 06:32:37;;;;;;;;;;;;;;;;;;4994184;28;20079;-80
2023/04/21 06:35:28;;;;;;;;;;;;;;;;;;4994792;28;19928;-81
2023/04/21 06:37:53;;;;;;;;;;;;;;;;;;4993903;28;20008;-79
2023/04/21 06:40:19;;;;;;;;;;;;;;;;;;4976654;28;19913;-80
2023/04/21 06:42:44;;;;;;;;;;;;;;;;;;4993737;28;19920;-80
2023/04/21 06:45:09;;;;;;;;;;;;;;;;;;4994910;28;19965;-80
2023/04/21 06:47:35;;;;;;;;;;;;;;;;;;5006111;28;19917;-80
2023/04/21 06:50:00;;;;;;;;;;;;;;;;;;4999949;28;19964;-80
2023/04/21 06:52:25;;;;;;;;;;;;;;;;;;4996102;28;20005;-79
2023/04/21 06:54:51;;;;;;;;;;;;;;;;;;4995568;28;20427;-80
2023/04/21 06:57:16;;;;;;;;;;;;;;;;;;4996909;28;19922;-80
2023/04/21 06:59:41;;;;;;;;;;;;;;;;;;5001485;28;19921;-79
2023/04/21 07:02:07;;;;;;;;;;;;;;;;;;4993161;28;19924;-81
2023/04/21 07:04:32;;;;;;;;;;;;;;;;;;4993366;28;20316;-79
2023/04/21 07:06:57;;;;;;;;;;;;;;;;;;4992054;28;19920;-80
2023/04/21 07:09:23;;;;;;;;;;;;;;;;;;4993152;28;20293;-79
2023/04/21 07:11:48;;;;;;;;;;;;;;;;;;4993344;28;19923;-80
2023/04/21 07:14:13;;;;;;;;;;;;;;;;;;5024492;28;19913;-80
2023/04/21 07:16:39;;;;;;;;;;;;;;;;;;4994018;28;19921;-79
2023/04/21 07:19:04;;;;;;;;;;;;;;;;;;4993388;28;19956;-79
2023/04/21 07:21:30;;;;;;;;;;;;;;;;;;4997087;28;20718;-80
2023/04/21 07:23:56;;;;;;;;;;;;;;;;;;5028487;28;19916;-80
2023/04/21 07:26:21;;;;;;;;;;;;;;;;;;4997300;28;20551;-80
2023/04/21 07:28:48;;;;;;;;;;;;;;;;;;4999698;28;19913;-80
2023/04/21 07:31:13;;;;;;;;;;;;;;;;;;4990949;28;19960;-79
2023/04/21 07:33:39;;;;;;;;;;;;;;;;;;5002370;28;20000;-80
2023/04/21 07:36:04;;;;;;;;;;;;;;;;;;4993139;28;20277;-80
2023/04/21 07:38:29;;;;;;;;;;;;;;;;;;4992080;28;20499;-80
2023/04/21 07:40:55;;;;;;;;;;;;;;;;;;5002668;28;19920;-78
2023/04/21 07:43:20;;;;;;;;;;;;;;;;;;5002289;28;20289;-80
2023/04/21 07:45:45;;;;;;;;;;;;;;;;;;4997895;28;19914;-79
2023/04/21 07:48:11;;;;;;;;;;;;;;;;;;4992106;28;19913;-78
2023/04/21 07:50:36;;;;;;;;;;;;;;;;;;4992665;28;19953;-80
2023/04/21 07:53:01;;;;;;;;;;;;;;;;;;4992677;28;19910;-81
2023/04/21 07:55:27;;;;;;;;;;;;;;;;;;4991626;28;20816;-81
2023/04/21 07:57:52;;;;;;;;;;;;;;;;;;4991624;28;19909;-80
2023/04/21 08:00:17;;;;;;;;;;;;;;;;;;4981059;28;20282;-80
2023/04/21 08:02:43;;;;;;;;;;;;;;;;;;4991410;28;19914;-80
2023/04/21 08:05:08;;;;;;;;;;;;;;;;;;4992082;28;19918;-79
2023/04/21 08:07:33;;;;;;;;;;;;;;;;;;4991724;28;19917;-81
2023/04/21 08:09:59;;;;;;;;;;;;;;;;;;4992850;28;19984;-79
2023/04/21 08:12:24;;;;;;;;;;;;;;;;;;4993421;28;20301;-79
2023/04/21 08:14:49;;;;;;;;;;;;;;;;;;4993142;28;19913;-79
2023/04/21 08:17:15;;;;;;;;;;;;;;;;;;4994947;28;19957;-80
2023/04/21 08:19:40;;;;;;;;;;;;;;;;;;4994364;28;19964;-81
2023/04/21 08:22:05;;;;;;;;;;;;;;;;;;4985885;28;19910;-79
2023/04/21 08:24:31;;;;;;;;;;;;;;;;;;4992892;28;19914;-79
2023/04/21 08:26:56;;;;;;;;;;;;;;;;;;4996079;28;19917;-79
2023/04/21 08:29:22;;;;;;;;;;;;;;;;;;4994069;28;19918;-80
2023/04/21 08:31:47;;;;;;;;;;;;;;;;;;4994948;28;19909;-80
2023/04/21 08:34:13;;;;;;;;;;;;;;;;;;4991208;28;19968;-79
2023/04/21 08:36:38;;;;;;;;;;;;;;;;;;4991546;28;19925;-79
2023/04/21 08:39:03;;;;;;;;;;;;;;;;;;4990451;28;20012;-79
2023/04/21 08:41:28;;;;;;;;;;;;;;;;;;4991413;28;19917;-79
2023/04/21 08:43:54;;;;;;;;;;;;;;;;;;4992195;28;19949;-79
2023/04/21 08:46:19;;;;;;;;;;;;;;;;;;4994472;28;20381;-78
2023/04/21 08:48:45;;;;;;;;;;;;;;;;;;4992673;28;19924;-78
2023/04/21 08:51:10;;;;;;;;;;;;;;;;;;4996391;28;20292;-79
2023/04/21 08:53:36;;;;;;;;;;;;;;;;;;4995107;28;20432;-79
2023/04/21 08:56:01;;;;;;;;;;;;;;;;;;5002842;28;19909;-81
2023/04/21 08:58:26;;;;;;;;;;;;;;;;;;4995871;28;20718;-79
2023/04/21 09:00:52;;;;;;;;;;;;;;;;;;4998337;28;20253;-80
2023/04/21 09:03:17;;;;;;;;;;;;;;;;;;4996262;28;19968;-79
2023/04/21 09:05:42;;;;;;;;;;;;;;;;;;5000749;28;19909;-80
2023/04/21 09:08:10;;;;;;;;;;;;;;;;;;4996071;28;19917;-80
2023/04/21 09:10:36;;;;;;;;;;;;;;;;;;5000705;28;19963;-79
2023/04/21 09:13:01;;;;;;;;;;;;;;;;;;5022890;28;20387;-80
2023/04/21 09:15:26;;;;;;;;;;;;;;;;;;5003459;28;19921;-80
2023/04/21 09:17:51;;;;;;;;;;;;;;;;;;5000878;28;20369;-80
2023/04/21 09:20:17;;;;;;;;;;;;;;;;;;5005628;28;19909;-80
2023/04/21 09:22:42;;;;;;;;;;;;;;;;;;5001828;28;19913;-79
2023/04/21 09:25:07;;;;;;;;;;;;;;;;;;5004473;28;19964;-80
2023/04/21 09:27:33;;;;;;;;;;;;;;;;;;5001255;28;19918;-80
2023/04/21 09:29:58;;;;;;;;;;;;;;;;;;4983220;28;19914;-80
2023/04/21 09:32:23;;;;;;;;;;;;;;;;;;5000644;28;19950;-80
2023/04/21 09:34:49;;;;;;;;;;;;;;;;;;5004425;28;19917;-80
2023/04/21 09:37:14;;;;;;;;;;;;;;;;;;5005388;28;19913;-80
2023/04/21 09:39:40;;;;;;;;;;;;;;;;;;5008636;28;19909;-80
2023/04/21 09:42:05;;;;;;;;;;;;;;;;;;5004304;28;19964;-80
2023/04/21 09:44:30;;;;;;;;;;;;;;;;;;5009375;28;19944;-80
2023/04/21 09:46:56;;;;;;;;;;;;;;;;;;5010302;28;20377;-80
2023/04/21 09:49:21;;;;;;;;;;;;;;;;;;5007854;28;19967;-80
2023/04/21 09:51:46;;;;;;;;;;;;;;;;;;5007679;28;19913;-80
2023/04/21 09:54:12;;;;;;;;;;;;;;;;;;5009804;28;19963;-81
2023/04/21 09:56:37;;;;;;;;;;;;;;;;;;5010806;28;20407;-79
2023/04/21 09:59:03;;;;;;;;;;;;;;;;;;5008663;28;20404;-79
2023/04/21 10:01:28;;;;;;;;;;;;;;;;;;5010680;28;20335;-80
2023/04/21 10:03:54;;;;;;;;;;;;;;;;;;5038857;28;20036;-80
2023/04/21 10:06:19;;;;;;;;;;;;;;;;;;5010603;28;19914;-79
2023/04/21 10:08:45;;;;;;;;;;;;;;;;;;4995338;28;19918;-80
2023/04/21 10:11:10;;;;;;;;;;;;;;;;;;4998277;28;19921;-82
2023/04/21 10:13:35;;;;;;;;;;;;;;;;;;5009158;28;19910;-81
2023/04/21 10:16:01;;;;;;;;;;;;;;;;;;5032905;28;19913;-80
2023/04/21 10:18:26;;;;;;;;;;;;;;;;;;4995709;28;19910;-79
2023/04/21 10:20:52;;;;;;;;;;;;;;;;;;5011459;28;19921;-79
2023/04/21 10:23:17;;;;;;;;;;;;;;;;;;4996365;28;19909;-80
2023/04/21 10:25:43;;;;;;;;;;;;;;;;;;5003854;28;19913;-79
2023/04/21 10:28:08;;;;;;;;;;;;;;;;;;5004598;28;19921;-81
2023/04/21 10:30:33;;;;;;;;;;;;;;;;;;4988539;28;19914;-81
2023/04/21 10:32:59;;;;;;;;;;;;;;;;;;4991286;28;20012;-80
2023/04/21 10:35:24;;;;;;;;;;;;;;;;;;4995755;28;19921;-80
2023/04/21 10:37:50;;;;;;;;;;;;;;;;;;4995432;28;19913;-81
2023/04/21 10:40:16;;;;;;;;;;;;;;;;;;4994759;28;19921;-81
2023/04/21 10:42:41;;;;;;;;;;;;;;;;;;4995706;28;20337;-79
2023/04/21 10:45:06;;;;;;;;;;;;;;;;;;4993818;28;20064;-79
2023/04/21 10:47:33;;;;;;;;;;;;;;;;;;4996317;28;19953;-80
2023/04/21 10:49:59;;;;;;;;;;;;;;;;;;4995111;28;19913;-79
2023/04/21 10:52:25;;;;;;;;;;;;;;;;;;4996569;28;20360;-80
2023/04/21 10:54:52;;;;;;;;;;;;;;;;;;5025560;28;20361;-81
2023/04/21 10:57:18;;;;;;;;;;;;;;;;;;4993209;28;19910;-81
2023/04/21 10:59:43;;;;;;;;;;;;;;;;;;4993530;28;19913;-81
2023/04/21 11:02:08;;;;;;;;;;;;;;;;;;4996420;28;19924;-81
2023/04/21 11:04:34;;;;;;;;;;;;;;;;;;4996395;28;20270;-79
2023/04/21 11:06:59;;;;;;;;;;;;;;;;;;4994673;28;19972;-79
2023/04/21 11:09:24;;;;;;;;;;;;;;;;;;4998889;28;19918;-79
2023/04/21 11:11:50;;;;;;;;;;;;;;;;;;4996788;28;19945;-80
2023/04/21 11:14:15;;;;;;;;;;;;;;;;;;4994594;28;19921;-80
2023/04/21 11:16:40;;;;;;;;;;;;;;;;;;5008383;28;19917;-80
2023/04/21 11:19:06;;;;;;;;;;;;;;;;;;4992383;28;19960;-80
2023/04/21 11:21:32;;;;;;;;;;;;;;;;;;4992799;28;20337;-79
2023/04/21 11:23:57;;;;;;;;;;;;;;;;;;4998119;28;19964;-81
2023/04/21 11:26:23;;;;;;;;;;;;;;;;;;4996150;28;19913;-80
2023/04/21 11:28:48;;;;;;;;;;;;;;;;;;4994367;28;20258;-79
2023/04/21 11:31:14;;;;;;;;;;;;;;;;;;4991786;28;20340;-80
2023/04/21 11:33:39;;;;;;;;;;;;;;;;;;5000045;28;20303;-79
2023/04/21 11:36:05;;;;;;;;;;;;;;;;;;4993932;28;19965;-79
2023/04/21 11:38:30;;;;;;;;;;;;;;;;;;4992074;28;19914;-80
2023/04/21 11:40:55;;;;;;;;;;;;;;;;;;4992147;28;21410;-80
2023/04/21 11:43:20;;;;;;;;;;;;;;;;;;4996648;28;19913;-80
2023/04/21 11:45:46;;;;;;;;;;;;;;;;;;4999486;28;19926;-80
2023/04/21 11:48:11;;;;;;;;;;;;;;;;;;4992389;28;20724;-81
2023/04/21 11:50:37;;;;;;;;;;;;;;;;;;4992150;28;19920;-80
2023/04/21 11:53:03;;;;;;;;;;;;;;;;;;4994467;28;20000;-80
2023/04/21 11:55:28;;;;;;;;;;;;;;;;;;4996061;28;20017;-80
2023/04/21 11:57:54;;;;;;;;;;;;;;;;;;4994443;28;20380;-81
2023/04/21 12:00:19;;;;;;;;;;;;;;;;;;4995496;28;19910;-81
2023/04/21 12:02:44;;;;;;;;;;;;;;;;;;4994587;28;19960;-81
2023/04/21 12:05:09;;;;;;;;;;;;;;;;;;4997061;28;20400;-81
2023/04/21 12:07:35;;;;;;;;;;;;;;;;;;5023688;28;19917;-81
2023/04/21 12:10:01;;;;;;;;;;;;;;;;;;4995752;28;19914;-80
2023/04/21 12:12:27;;;;;;;;;;;;;;;;;;4995304;28;19920;-81
2023/04/21 12:14:52;;;;;;;;;;;;;;;;;;4996151;28;19909;-80
2023/04/21 12:17:17;;;;;;;;;;;;;;;;;;4996700;28;20308;-81
2023/04/21 12:19:43;;;;;;;;;;;;;;;;;;4994570;28;19910;-80
2023/04/21 12:22:08;;;;;;;;;;;;;;;;;;5024583;28;19918;-79
2023/04/21 12:24:33;;;;;;;;;;;;;;;;;;4991931;28;20408;-81
2023/04/21 12:26:59;;;;;;;;;;;;;;;;;;5023586;28;19944;-81
2023/04/21 12:29:24;;;;;;;;;;;;;;;;;;4990745;28;19930;-80
2023/04/21 12:31:50;;;;;;;;;;;;;;;;;;4980761;28;19913;-79
2023/04/21 12:34:15;;;;;;;;;;;;;;;;;;4993172;28;20361;-79
2023/04/21 12:36:40;;;;;;;;;;;;;;;;;;4986297;28;19928;-81
2023/04/21 12:39:06;;;;;;;;;;;;;;;;;;4985623;28;19948;-80
2023/04/21 12:41:33;;;;;;;;;;;;;;;;;;4992528;28;19913;-80
2023/04/21 12:43:58;;;;;;;;;;;;;;;;;;4992100;28;19910;-80
2023/04/21 12:46:24;;;;;;;;;;;;;;;;;;4994462;28;20428;-80
2023/04/21 12:48:51;;;;;;;;;;;;;;;;;;4991506;28;20395;-80
2023/04/21 12:51:16;;;;;;;;;;;;;;;;;;5017272;28;19914;-80
2023/04/21 12:53:41;;;;;;;;;;;;;;;;;;4994519;28;19996;-79
2023/04/21 12:56:07;;;;;;;;;;;;;;;;;;4995549;28;19913;-80
2023/04/21 12:58:32;;;;;;;;;;;;;;;;;;4996113;28;19916;-80
2023/04/21 13:00:57;;;;;;;;;;;;;;;;;;4996815;28;20292;-80
2023/04/21 13:03:23;;;;;;;;;;;;;;;;;;5012193;28;20392;-80
2023/04/21 13:05:48;;;;;;;;;;;;;;;;;;5030174;28;19925;-79
2023/04/21 13:08:14;;;;;;;;;;;;;;;;;;5004980;28;19932;-80
2023/04/21 13:10:39;;;;;;;;;;;;;;;;;;4995152;28;19925;-79
2023/04/21 13:13:04;;;;;;;;;;;;;;;;;;5019934;28;19909;-80
2023/04/21 13:15:30;;;;;;;;;;;;;;;;;;4991505;28;20373;-80
2023/04/21 13:17:55;;;;;;;;;;;;;;;;;;4995453;28;19917;-80
2023/04/21 13:20:21;;;;;;;;;;;;;;;;;;4993854;28;19914;-80
2023/04/21 13:22:46;;;;;;;;;;;;;;;;;;4995213;28;19910;-80
2023/04/21 13:25:11;;;;;;;;;;;;;;;;;;5026521;28;20312;-80
2023/04/21 13:27:38;;;;;;;;;;;;;;;;;;4995330;28;19968;-80
2023/04/21 13:30:04;;;;;;;;;;;;;;;;;;4994080;28;20780;-79
2023/04/21 13:32:29;;;;;;;;;;;;;;;;;;4994868;28;19941;-80
2023/04/21 13:34:54;;;;;;;;;;;;;;;;;;5004990;28;20305;-79
2023/04/21 13:37:20;;;;;;;;;;;;;;;;;;5000734;28;19918;-79
2023/04/21 13:39:45;;;;;;;;;;;;;;;;;;4998922;28;19965;-78
2023/04/21 13:42:10;;;;;;;;;;;;;;;;;;4996275;28;19916;-81
2023/04/21 13:44:36;;;;;;;;;;;;;;;;;;5001587;28;20013;-80
2023/04/21 13:47:01;;;;;;;;;;;;;;;;;;4998382;28;19910;-80
2023/04/21 13:49:26;;;;;;;;;;;;;;;;;;4994342;28;19917;-80
2023/04/21 13:51:52;;;;;;;;;;;;;;;;;;4989546;28;19910;-79
2023/04/21 13:54:17;;;;;;;;;;;;;;;;;;5004023;28;20011;-80
2023/04/21 13:56:43;;;;;;;;;;;;;;;;;;4999291;28;19996;-79
2023/04/21 13:59:09;;;;;;;;;;;;;;;;;;5004496;28;19917;-79
2023/04/21 14:01:35;;;;;;;;;;;;;;;;;;5000603;28;19924;-79
2023/04/21 14:04:00;;;;;;;;;;;;;;;;;;5004686;28;19914;-79
2023/04/21 14:06:25;;;;;;;;;;;;;;;;;;5001538;28;19910;-80
2023/04/21 14:08:51;;;;;;;;;;;;;;;;;;5004615;28;20007;-80
2023/04/21 14:11:16;;;;;;;;;;;;;;;;;;5000866;28;19925;-81
2023/04/21 14:13:41;;;;;;;;;;;;;;;;;;4998901;28;19914;-80
2023/04/21 14:16:07;;;;;;;;;;;;;;;;;;5001858;28;19916;-79
2023/04/21 14:18:32;;;;;;;;;;;;;;;;;;5031793;28;19929;-79
2023/04/21 14:20:57;;;;;;;;;;;;;;;;;;5023880;28;19964;-79
2023/04/21 14:23:22;;;;;;;;;;;;;;;;;;5008702;28;20007;-79
2023/04/21 14:25:48;;;;;;;;;;;;;;;;;;5006515;28;19913;-79
2023/04/21 14:28:13;;;;;;;;;;;;;;;;;;5007849;28;19917;-78
2023/04/21 14:30:38;;;;;;;;;;;;;;;;;;5026480;28;19917;-79
2023/04/21 14:33:04;;;;;;;;;;;;;;;;;;5024705;28;19913;-79
2023/04/21 14:35:30;;;;;;;;;;;;;;;;;;4996825;28;20758;-80
2023/04/21 14:37:55;;;;;;;;;;;;;;;;;;4996512;28;19913;-80
2023/04/21 14:40:20;;;;;;;;;;;;;;;;;;4994790;28;19917;-80
2023/04/21 14:42:46;;;;;;;;;;;;;;;;;;4993666;28;19952;-80
2023/04/21 14:45:11;;;;;;;;;;;;;;;;;;4993865;28;19937;-79
2023/04/21 14:47:36;;;;;;;;;;;;;;;;;;4995599;28;20300;-80
2023/04/21 14:50:02;;;;;;;;;;;;;;;;;;4995858;28;20247;-79
2023/04/21 14:52:27;;;;;;;;;;;;;;;;;;4997640;28;20349;-80
2023/04/21 14:54:53;;;;;;;;;;;;;;;;;;4996044;28;19916;-79
2023/04/21 14:57:20;;;;;;;;;;;;;;;;;;4998466;28;20447;-80
2023/04/21 14:59:45;;;;;;;;;;;;;;;;;;4994589;28;19938;-79
2023/04/21 15:02:11;;;;;;;;;;;;;;;;;;4998257;28;20396;-79
2023/04/21 15:04:36;;;;;;;;;;;;;;;;;;4995693;28;19921;-79
2023/04/21 15:07:02;;;;;;;;;;;;;;;;;;4997305;28;19959;-79
2023/04/21 15:09:27;;;;;;;;;;;;;;;;;;4996007;28;19976;-79
2023/04/21 15:11:53;;;;;;;;;;;;;;;;;;4997927;28;20385;-79
2023/04/21 15:14:18;;;;;;;;;;;;;;;;;;4994424;28;20012;-77
2023/04/21 15:16:44;;;;;;;;;;;;;;;;;;4996449;28;19918;-80
2023/04/21 15:19:09;;;;;;;;;;;;;;;;;;4996277;28;19962;-77
2023/04/21 15:21:35;;;;;;;;;;;;;;;;;;4996764;28;19919;-79
2023/04/21 15:24:00;;;;;;;;;;;;;;;;;;4995944;28;19909;-80
2023/04/21 15:26:25;;;;;;;;;;;;;;;;;;5005285;28;20281;-77
2023/04/21 15:28:51;;;;;;;;;;;;;;;;;;4995738;28;19914;-81
2023/04/21 15:31:16;;;;;;;;;;;;;;;;;;4989481;28;19944;-81
2023/04/21 15:33:49;;;;;;;;;;;;;;;;;;5078361;27;19960;-81
2023/04/21 15:36:14;;;;;;;;;;;;;;;;;;5073871;28;19951;-81
2023/04/21 15:38:40;;;;;;;;;;;;;;;;;;5076441;28;19923;-80
2023/04/21 15:41:05;;;;;;;;;;;;;;;;;;5064844;28;20057;-80
2023/04/21 15:43:31;;;;;;;;;;;;;;;;;;5065693;28;19916;-81
2023/04/21 15:45:57;;;;;;;;;;;;;;;;;;5060696;28;19917;-80
2023/04/21 15:48:22;;;;;;;;;;;;;;;;;;5070255;28;20264;-80
2023/04/21 15:50:48;;;;;;;;;;;;;;;;;;5070947;28;19924;-79
2023/04/21 15:53:13;;;;;;;;;;;;;;;;;;5061423;28;19921;-78
2023/04/21 15:55:38;;;;;;;;;;;;;;;;;;5067413;28;19924;-78
2023/04/21 15:58:03;;;;;;;;;;;;;;;;;;5072578;28;19912;-79
2023/04/21 16:00:29;;;;;;;;;;;;;;;;;;5070434;28;19916;-79
2023/04/21 16:02:54;;;;;;;;;;;;;;;;;;5069349;28;19919;-80
2023/04/21 16:05:19;;;;;;;;;;;;;;;;;;5069051;28;19928;-80
2023/04/21 16:07:45;;;;;;;;;;;;;;;;;;5073645;28;19977;-80
2023/04/21 16:10:10;;;;;;;;;;;;;;;;;;5069625;28;20307;-80
2023/04/21 16:12:35;;;;;;;;;;;;;;;;;;5068116;28;19974;-78
2023/04/21 16:15:01;;;;;;;;;;;;;;;;;;5063667;28;19936;-79
2023/04/21 16:17:26;;;;;;;;;;;;;;;;;;5057780;28;20379;-78
2023/04/21 16:19:52;;;;;;;;;;;;;;;;;;5086761;28;19912;-77
2023/04/21 16:22:18;;;;;;;;;;;;;;;;;;5085009;28;19924;-78
2023/04/21 16:24:44;;;;;;;;;;;;;;;;;;5072803;28;20307;-78
2023/04/21 16:27:09;;;;;;;;;;;;;;;;;;5073468;28;20031;-77
2023/04/21 16:29:35;;;;;;;;;;;;;;;;;;5067445;28;19919;-80
2023/04/21 16:32:00;;;;;;;;;;;;;;;;;;5074582;28;20367;-78
2023/04/21 16:34:25;;;;;;;;;;;;;;;;;;5069120;28;20037;-78